createdAt,value
2018-07-21T00:01:18.490Z,19.70
2018-07-21T00:03:46.639Z,19.70
2018-07-21T00:06:14.811Z,19.70
2018-07-21T00:08:43.072Z,19.70
2018-07-21T00:11:11.210Z,19.70
2018-07-21T00:13:39.347Z,19.70
2018-07-21T00:16:07.551Z,19.70
2018-07-21T00:18:35.796Z,19.70
2018-07-21T00:21:03.979Z,19.70
2018-07-21T00:23:32.273Z,19.70
2018-07-21T00:26:00.504Z,19.70
2018-07-21T00:28:28.668Z,19.70
2018-07-21T00:30:56.817Z,19.70
2018-07-21T00:33:25.007Z,19.70
2018-07-21T00:35:53.159Z,19.70
2018-07-21T00:38:21.365Z,19.70
2018-07-21T00:40:49.508Z,19.70
2018-07-21T00:43:17.711Z,19.60
2018-07-21T00:45:46.496Z,19.60
2018-07-21T00:48:14.668Z,19.70
2018-07-21T00:50:42.937Z,19.90
2018-07-21T00:53:11.382Z,20.10
2018-07-21T00:55:39.595Z,20.20
2018-07-21T00:58:07.872Z,20.30
2018-07-21T01:00:36.004Z,20.40
2018-07-21T01:03:04.130Z,20.40
2018-07-21T01:05:32.311Z,20.40
2018-07-21T01:08:00.493Z,20.40
2018-07-21T01:10:28.664Z,20.40
2018-07-21T01:12:56.808Z,20.30
2018-07-21T01:15:25.000Z,20.20
2018-07-21T01:17:53.197Z,20.10
2018-07-21T01:20:21.683Z,20.00
2018-07-21T01:22:49.940Z,19.90
2018-07-21T01:25:18.441Z,19.80
2018-07-21T01:27:46.657Z,19.70
2018-07-21T01:30:14.817Z,19.70
2018-07-21T01:35:10.923Z,19.70
2018-07-21T01:37:39.071Z,19.60
2018-07-21T01:40:07.265Z,19.60
2018-07-21T01:42:35.452Z,19.50
2018-07-21T01:45:03.680Z,19.50
2018-07-21T01:47:31.978Z,19.50
2018-07-21T01:50:00.280Z,19.40
2018-07-21T01:52:28.522Z,19.40
2018-07-21T01:54:56.731Z,19.30
2018-07-21T01:57:24.920Z,19.20
2018-07-21T01:59:53.155Z,19.10
2018-07-21T02:02:21.889Z,19.00
2018-07-21T02:04:50.088Z,18.90
2018-07-21T02:07:19.208Z,18.80
2018-07-21T02:09:47.848Z,18.70
2018-07-21T02:12:16.047Z,18.50
2018-07-21T02:14:47.972Z,18.20
2018-07-21T02:17:16.209Z,18.00
2018-07-21T02:19:44.335Z,18.00
2018-07-21T02:22:12.511Z,18.00
2018-07-21T02:24:40.676Z,18.00
2018-07-21T02:27:09.592Z,18.00
2018-07-21T02:29:37.737Z,17.90
2018-07-21T02:32:06.030Z,17.90
2018-07-21T02:34:34.205Z,17.90
2018-07-21T02:37:02.412Z,17.80
2018-07-21T02:39:30.560Z,17.70
2018-07-21T02:41:58.752Z,17.70
2018-07-21T02:44:26.897Z,17.60
2018-07-21T02:46:55.052Z,17.70
2018-07-21T02:49:23.196Z,17.60
2018-07-21T02:51:51.351Z,17.50
2018-07-21T02:54:19.515Z,17.50
2018-07-21T02:56:47.687Z,17.40
2018-07-21T02:59:15.833Z,17.30
2018-07-21T03:01:44.027Z,17.30
2018-07-21T03:04:12.252Z,17.30
2018-07-21T03:06:40.502Z,17.30
2018-07-21T03:09:10.424Z,17.40
2018-07-21T03:11:38.604Z,17.40
2018-07-21T03:14:06.875Z,17.50
2018-07-21T03:16:35.056Z,17.50
2018-07-21T03:19:03.275Z,17.40
2018-07-21T03:21:31.564Z,17.40
2018-07-21T03:23:59.720Z,17.40
2018-07-21T03:26:27.921Z,17.40
2018-07-21T03:28:56.111Z,17.40
2018-07-21T03:31:24.316Z,17.40
2018-07-21T03:33:52.504Z,17.40
2018-07-21T03:36:21.293Z,17.40
2018-07-21T03:38:49.600Z,17.40
2018-07-21T03:41:17.848Z,17.40
2018-07-21T03:43:46.014Z,17.40
2018-07-21T03:46:14.208Z,17.40
2018-07-21T03:48:42.371Z,17.40
2018-07-21T03:51:10.555Z,17.40
2018-07-21T03:53:38.728Z,17.40
2018-07-21T03:56:06.914Z,17.40
2018-07-21T03:58:35.099Z,17.40
2018-07-21T04:01:03.264Z,17.40
2018-07-21T04:03:31.475Z,17.40
2018-07-21T04:06:00.334Z,17.40
2018-07-21T04:08:28.531Z,17.40
2018-07-21T04:10:56.706Z,17.40
2018-07-21T04:13:24.899Z,17.40
2018-07-21T04:15:53.104Z,17.40
2018-07-21T04:18:21.273Z,17.40
2018-07-21T04:20:49.477Z,17.50
2018-07-21T04:23:17.686Z,17.50
2018-07-21T04:25:45.881Z,17.40
2018-07-21T04:28:14.072Z,17.40
2018-07-21T04:30:42.235Z,17.40
2018-07-21T04:33:10.411Z,17.40
2018-07-21T04:35:38.584Z,17.40
2018-07-21T04:38:06.876Z,17.40
2018-07-21T04:40:35.085Z,17.40
2018-07-21T04:43:03.252Z,17.40
2018-07-21T04:45:31.421Z,17.50
2018-07-21T04:47:59.598Z,17.50
2018-07-21T04:50:27.763Z,17.50
2018-07-21T04:52:55.948Z,17.60
2018-07-21T04:55:24.139Z,17.60
2018-07-21T04:57:52.392Z,17.60
2018-07-21T05:00:20.585Z,17.70
2018-07-21T05:02:48.753Z,17.70
2018-07-21T05:05:16.923Z,17.70
2018-07-21T05:07:45.168Z,17.80
2018-07-21T05:10:13.337Z,17.80
2018-07-21T05:12:41.533Z,17.80
2018-07-21T05:15:09.711Z,17.80
2018-07-21T05:17:37.961Z,17.80
2018-07-21T05:20:06.262Z,17.80
2018-07-21T05:22:34.441Z,17.80
2018-07-21T05:25:02.661Z,17.80
2018-07-21T05:27:30.825Z,17.80
2018-07-21T05:29:58.990Z,17.80
2018-07-21T05:32:27.187Z,17.90
2018-07-21T05:34:56.266Z,17.90
2018-07-21T05:37:24.423Z,17.90
2018-07-21T05:39:52.640Z,17.90
2018-07-21T05:42:20.826Z,17.80
2018-07-21T05:44:48.984Z,17.90
2018-07-21T05:47:17.164Z,17.90
2018-07-21T05:49:45.331Z,17.90
2018-07-21T05:52:13.503Z,17.90
2018-07-21T05:54:41.745Z,17.90
2018-07-21T05:57:09.887Z,17.80
2018-07-21T05:59:38.043Z,17.80
2018-07-21T06:02:06.830Z,17.80
2018-07-21T06:04:35.018Z,17.70
2018-07-21T06:07:03.223Z,17.70
2018-07-21T06:09:31.391Z,17.70
2018-07-21T06:11:59.563Z,17.70
2018-07-21T06:14:27.740Z,17.70
2018-07-21T06:16:55.925Z,17.80
2018-07-21T06:19:24.075Z,17.80
2018-07-21T06:21:52.202Z,17.80
2018-07-21T06:24:20.361Z,17.80
2018-07-21T06:26:48.506Z,17.90
2018-07-21T06:29:16.682Z,17.90
2018-07-21T06:31:44.878Z,17.90
2018-07-21T06:34:13.055Z,18.00
2018-07-21T06:36:41.217Z,18.00
2018-07-21T06:39:11.108Z,18.10
2018-07-21T06:41:39.395Z,18.00
2018-07-21T06:44:07.689Z,18.00
2018-07-21T06:46:35.861Z,18.00
2018-07-21T06:49:04.052Z,18.00
2018-07-21T06:51:32.233Z,18.00
2018-07-21T06:54:00.434Z,18.00
2018-07-21T06:58:57.005Z,17.90
2018-07-21T07:01:25.169Z,17.90
2018-07-21T07:03:53.385Z,18.00
2018-07-21T07:06:21.556Z,18.00
2018-07-21T07:08:49.734Z,18.00
2018-07-21T07:11:17.892Z,18.10
2018-07-21T07:13:46.148Z,18.20
2018-07-21T07:16:14.340Z,18.30
2018-07-21T07:18:42.494Z,18.40
2018-07-21T07:23:38.583Z,18.50
2018-07-21T07:26:06.751Z,18.50
2018-07-21T07:28:34.928Z,18.60
2018-07-21T07:31:03.119Z,18.70
2018-07-21T07:33:31.302Z,18.80
2018-07-21T07:35:59.548Z,18.80
2018-07-21T07:38:27.746Z,18.90
2018-07-21T07:40:55.912Z,19.00
2018-07-21T07:43:24.123Z,19.00
2018-07-21T07:45:52.280Z,19.10
2018-07-21T07:48:20.424Z,19.20
2018-07-21T07:50:48.595Z,19.30
2018-07-21T07:53:16.731Z,19.60
2018-07-21T07:55:44.933Z,19.80
2018-07-21T07:58:13.329Z,19.80
2018-07-21T08:00:41.460Z,19.80
2018-07-21T08:03:09.596Z,20.00
2018-07-21T08:05:37.755Z,20.00
2018-07-21T08:08:06.928Z,20.10
2018-07-21T08:10:35.120Z,20.30
2018-07-21T08:13:03.316Z,20.50
2018-07-21T08:15:31.468Z,20.70
2018-07-21T08:17:59.649Z,20.80
2018-07-21T08:20:27.833Z,20.60
2018-07-21T08:22:56.008Z,20.50
2018-07-21T08:25:24.199Z,20.50
2018-07-21T08:27:52.938Z,20.50
2018-07-21T08:30:21.112Z,20.50
2018-07-21T08:32:49.263Z,20.60
2018-07-21T08:35:17.426Z,20.70
2018-07-21T08:37:45.578Z,20.60
2018-07-21T08:40:13.731Z,20.60
2018-07-21T08:42:41.888Z,20.70
2018-07-21T08:45:10.069Z,20.80
2018-07-21T08:47:38.232Z,20.80
2018-07-21T08:50:06.826Z,20.70
2018-07-21T08:52:34.988Z,20.60
2018-07-21T08:55:03.147Z,20.50
2018-07-21T08:57:31.283Z,20.60
2018-07-21T08:59:59.447Z,20.60
2018-07-21T09:02:27.591Z,20.70
2018-07-21T09:04:56.631Z,20.70
2018-07-21T09:07:24.776Z,20.50
2018-07-21T09:09:52.923Z,20.50
2018-07-21T09:12:21.075Z,20.50
2018-07-21T09:14:49.259Z,20.60
2018-07-21T09:17:20.924Z,20.60
2018-07-21T09:19:50.040Z,20.80
2018-07-21T09:22:18.271Z,20.90
2018-07-21T09:24:46.675Z,20.90
2018-07-21T09:27:15.111Z,20.90
2018-07-21T09:29:43.278Z,20.80
2018-07-21T09:32:12.111Z,20.80
2018-07-21T09:34:40.279Z,20.90
2018-07-21T09:37:09.133Z,21.00
2018-07-21T09:39:37.319Z,21.20
2018-07-21T09:42:05.497Z,21.20
2018-07-21T09:44:33.664Z,21.30
2018-07-21T09:47:01.851Z,21.40
2018-07-21T09:49:30.077Z,21.30
2018-07-21T09:51:58.299Z,21.40
2018-07-21T09:54:26.475Z,21.40
2018-07-21T09:56:54.669Z,21.50
2018-07-21T09:59:22.935Z,21.60
2018-07-21T10:01:51.148Z,21.60
2018-07-21T10:04:19.333Z,21.70
2018-07-21T10:06:47.505Z,21.90
2018-07-21T10:09:15.651Z,21.80
2018-07-21T10:11:43.845Z,21.80
2018-07-21T10:14:11.999Z,21.60
2018-07-21T10:16:40.154Z,21.70
2018-07-21T10:19:09.374Z,21.90
2018-07-21T10:21:37.564Z,22.00
2018-07-21T10:24:11.724Z,22.00
2018-07-21T10:26:45.401Z,22.10
2018-07-21T10:29:14.444Z,22.20
2018-07-21T10:31:43.616Z,22.30
2018-07-21T10:34:12.118Z,22.50
2018-07-21T10:36:40.999Z,22.50
2018-07-21T10:39:12.257Z,22.60
2018-07-21T10:41:40.480Z,22.70
2018-07-21T10:44:08.678Z,22.80
2018-07-21T10:46:36.883Z,22.80
2018-07-21T10:51:33.969Z,22.60
2018-07-21T10:54:02.180Z,22.70
2018-07-21T10:56:30.377Z,22.80
2018-07-21T10:58:58.539Z,22.80
2018-07-21T11:01:27.823Z,22.90
2018-07-21T11:03:56.003Z,23.10
2018-07-21T11:06:24.179Z,23.10
2018-07-21T11:08:52.519Z,23.30
2018-07-21T11:11:20.801Z,23.20
2018-07-21T11:13:48.995Z,22.90
2018-07-21T11:16:17.843Z,22.90
2018-07-21T11:18:46.699Z,22.80
2018-07-21T11:21:14.901Z,23.00
2018-07-21T11:23:43.047Z,22.80
2018-07-21T11:26:11.336Z,22.80
2018-07-21T11:28:39.496Z,23.00
2018-07-21T11:31:07.691Z,23.20
2018-07-21T11:33:35.879Z,23.40
2018-07-21T11:36:04.331Z,23.70
2018-07-21T11:38:32.288Z,23.70
2018-07-21T11:41:00.470Z,24.00
2018-07-21T11:43:28.688Z,24.40
2018-07-21T11:45:56.875Z,24.20
2018-07-21T11:48:25.067Z,24.00
2018-07-21T11:50:53.518Z,23.90
2018-07-21T11:53:21.712Z,23.90
2018-07-21T11:55:49.912Z,24.10
2018-07-21T11:58:18.155Z,24.00
2018-07-21T12:00:46.334Z,24.10
2018-07-21T12:03:14.516Z,24.10
2018-07-21T12:05:42.748Z,24.30
2018-07-21T12:08:11.176Z,24.00
2018-07-21T12:10:39.384Z,23.60
2018-07-21T12:13:07.739Z,23.30
2018-07-21T12:15:35.964Z,23.50
2018-07-21T12:18:04.202Z,23.50
2018-07-21T12:20:32.876Z,23.60
2018-07-21T12:23:01.050Z,23.70
2018-07-21T12:27:57.394Z,23.90
2018-07-21T12:30:25.568Z,23.90
2018-07-21T12:32:54.002Z,24.00
2018-07-21T12:35:22.170Z,24.40
2018-07-21T12:37:50.380Z,24.40
2018-07-21T12:40:18.583Z,24.30
2018-07-21T12:42:46.778Z,24.20
2018-07-21T12:45:14.989Z,24.10
2018-07-21T12:47:43.179Z,24.10
2018-07-21T12:50:11.348Z,24.10
2018-07-21T12:52:39.531Z,23.90
2018-07-21T12:55:07.732Z,24.00
2018-07-21T12:57:35.932Z,24.20
2018-07-21T13:00:04.836Z,24.10
2018-07-21T13:02:33.024Z,24.10
2018-07-21T13:05:01.190Z,24.10
2018-07-21T13:07:29.437Z,24.20
2018-07-21T13:09:57.614Z,24.20
2018-07-21T13:12:25.844Z,24.10
2018-07-21T13:14:54.025Z,24.20
2018-07-21T13:17:22.927Z,24.30
2018-07-21T13:19:51.382Z,24.20
2018-07-21T13:22:20.099Z,24.20
2018-07-21T13:24:48.326Z,24.20
2018-07-21T13:27:17.207Z,24.30
2018-07-21T13:29:45.397Z,24.30
2018-07-21T13:32:13.596Z,24.50
2018-07-21T13:34:41.930Z,24.70
2018-07-21T13:37:10.128Z,24.60
2018-07-21T13:39:38.308Z,24.50
2018-07-21T13:42:06.619Z,24.30
2018-07-21T13:44:34.780Z,24.40
2018-07-21T13:47:02.966Z,24.60
2018-07-21T13:49:31.125Z,24.60
2018-07-21T13:54:27.247Z,24.60
2018-07-21T13:56:55.749Z,24.60
2018-07-21T13:59:23.976Z,24.50
2018-07-21T14:01:52.156Z,24.50
2018-07-21T14:04:20.376Z,24.70
2018-07-21T14:06:48.569Z,24.50
2018-07-21T14:09:16.751Z,24.50
2018-07-21T14:11:45.018Z,24.60
2018-07-21T14:14:13.309Z,24.70
2018-07-21T14:16:41.467Z,24.80
2018-07-21T14:19:09.645Z,25.00
2018-07-21T14:21:37.804Z,25.00
2018-07-21T14:24:05.939Z,25.10
2018-07-21T14:29:02.044Z,25.30
2018-07-21T14:31:30.172Z,25.40
2018-07-21T14:33:58.356Z,25.50
2018-07-21T14:36:26.625Z,25.70
2018-07-21T14:38:55.261Z,25.60
2018-07-21T14:41:23.399Z,25.70
2018-07-21T14:43:51.573Z,25.50
2018-07-21T14:46:19.738Z,25.20
2018-07-21T14:48:47.931Z,25.20
2018-07-21T14:51:16.026Z,25.30
2018-07-21T14:53:44.210Z,25.20
2018-07-21T14:56:12.488Z,25.50
2018-07-21T14:58:40.609Z,25.50
2018-07-21T15:01:08.843Z,25.60
2018-07-21T15:03:37.030Z,25.50
2018-07-21T15:08:33.116Z,25.10
2018-07-21T15:11:02.407Z,25.20
2018-07-21T15:13:30.560Z,25.20
2018-07-21T15:15:58.749Z,25.20
2018-07-21T15:18:26.939Z,25.20
2018-07-21T15:20:55.152Z,25.20
2018-07-21T15:23:23.330Z,25.20
2018-07-21T15:28:19.420Z,25.10
2018-07-21T15:30:47.632Z,25.30
2018-07-21T15:33:15.926Z,25.40
2018-07-21T15:35:44.115Z,25.40
2018-07-21T15:38:12.448Z,25.30
2018-07-21T15:40:40.635Z,25.20
2018-07-21T15:43:08.827Z,25.20
2018-07-21T15:45:37.003Z,25.30
2018-07-21T15:48:05.199Z,25.50
2018-07-21T15:50:33.392Z,25.70
2018-07-21T15:53:01.582Z,25.50
2018-07-21T15:55:29.747Z,25.50
2018-07-21T15:57:57.942Z,25.50
2018-07-21T16:00:26.108Z,25.40
2018-07-21T16:02:54.282Z,25.50
2018-07-21T16:05:22.539Z,25.70
2018-07-21T16:07:50.720Z,25.60
2018-07-21T16:10:19.005Z,25.60
2018-07-21T16:12:47.189Z,25.30
2018-07-21T16:15:15.370Z,25.40
2018-07-21T16:17:43.532Z,25.50
2018-07-21T16:20:11.711Z,25.50
2018-07-21T16:22:39.883Z,25.60
2018-07-21T16:25:08.144Z,25.60
2018-07-21T16:27:36.320Z,25.50
2018-07-21T16:30:04.575Z,25.60
2018-07-21T16:32:32.791Z,25.70
2018-07-21T16:35:00.939Z,25.50
2018-07-21T16:37:29.125Z,25.50
2018-07-21T16:39:57.306Z,25.50
2018-07-21T16:42:25.491Z,25.50
2018-07-21T16:44:53.694Z,25.40
2018-07-21T16:47:21.861Z,25.40
2018-07-21T16:49:50.052Z,25.40
2018-07-21T16:52:18.212Z,25.40
2018-07-21T16:54:46.408Z,25.20
2018-07-21T16:57:14.584Z,25.10
2018-07-21T16:59:42.784Z,25.10
2018-07-21T17:02:11.002Z,25.00
2018-07-21T17:04:39.153Z,25.00
2018-07-21T17:07:07.326Z,25.00
2018-07-21T17:09:35.533Z,24.80
2018-07-21T17:12:03.839Z,24.80
2018-07-21T17:14:32.075Z,24.80
2018-07-21T17:17:00.187Z,24.70
2018-07-21T17:19:28.378Z,24.70
2018-07-21T17:21:56.575Z,24.70
2018-07-21T17:24:24.719Z,24.60
2018-07-21T17:26:53.200Z,24.50
2018-07-21T17:29:21.686Z,24.40
2018-07-21T17:31:49.834Z,24.40
2018-07-21T17:34:18.028Z,24.20
2018-07-21T17:36:46.208Z,24.10
2018-07-21T17:39:14.438Z,24.10
2018-07-21T17:41:42.543Z,24.00
2018-07-21T17:44:10.705Z,24.00
2018-07-21T17:46:38.924Z,23.90
2018-07-21T17:49:07.393Z,23.80
2018-07-21T17:51:36.059Z,23.60
2018-07-21T17:54:04.385Z,23.00
2018-07-21T17:56:32.560Z,21.50
2018-07-21T17:59:00.778Z,20.20
2018-07-21T18:01:29.009Z,19.50
2018-07-21T18:03:57.204Z,18.90
2018-07-21T18:06:25.405Z,18.40
2018-07-21T18:08:54.563Z,18.10
2018-07-21T18:11:22.754Z,17.90
2018-07-21T18:13:50.922Z,17.60
2018-07-21T18:16:19.105Z,17.40
2018-07-21T18:18:47.353Z,17.30
2018-07-21T18:21:15.529Z,17.20
2018-07-21T18:23:43.672Z,17.10
2018-07-21T18:26:11.829Z,17.10
2018-07-21T18:28:39.966Z,17.10
2018-07-21T18:31:08.195Z,17.00
2018-07-21T18:33:36.400Z,17.00
2018-07-21T18:36:04.521Z,17.00
2018-07-21T18:38:32.700Z,17.00
2018-07-21T18:41:00.861Z,16.90
2018-07-21T18:43:29.055Z,16.90
2018-07-21T18:45:57.196Z,16.80
2018-07-21T18:48:25.355Z,16.80
2018-07-21T18:50:53.564Z,16.80
2018-07-21T18:53:21.711Z,16.80
2018-07-21T18:55:50.901Z,16.80
2018-07-21T18:58:19.119Z,16.80
2018-07-21T19:00:47.948Z,16.70
2018-07-21T19:03:16.086Z,16.70
2018-07-21T19:05:44.253Z,16.70
2018-07-21T19:08:17.771Z,16.70
2018-07-21T19:10:45.950Z,16.70
2018-07-21T19:13:14.098Z,16.70
2018-07-21T19:15:47.652Z,16.70
2018-07-21T19:18:15.960Z,16.70
2018-07-21T19:20:49.544Z,16.70
2018-07-21T19:23:17.731Z,16.70
2018-07-21T19:25:51.335Z,16.60
2018-07-21T19:28:19.565Z,16.60
2018-07-21T19:30:47.781Z,16.60
2018-07-21T19:33:16.005Z,16.60
2018-07-21T19:35:44.214Z,16.60
2018-07-21T19:38:12.450Z,16.60
2018-07-21T19:40:40.656Z,16.60
2018-07-21T19:43:08.896Z,16.70
2018-07-21T19:45:37.123Z,16.70
2018-07-21T19:48:06.396Z,16.70
2018-07-21T19:50:34.608Z,16.70
2018-07-21T19:53:02.839Z,16.70
2018-07-21T19:55:31.043Z,16.70
2018-07-21T19:58:00.436Z,16.70
2018-07-21T20:00:28.662Z,16.70
2018-07-21T20:02:56.896Z,16.70
2018-07-21T20:05:25.152Z,16.60
2018-07-21T20:07:53.311Z,16.60
2018-07-21T20:10:22.485Z,16.60
2018-07-21T20:12:51.017Z,16.60
2018-07-21T20:15:19.292Z,16.60
2018-07-21T20:17:47.485Z,16.60
2018-07-21T20:20:15.721Z,16.50
2018-07-21T20:22:43.914Z,16.60
2018-07-21T20:25:12.111Z,16.50
2018-07-21T20:27:40.334Z,16.50
2018-07-21T20:30:08.620Z,16.50
2018-07-21T20:32:36.796Z,16.50
2018-07-21T20:35:05.424Z,16.50
2018-07-21T20:37:33.647Z,16.50
2018-07-21T20:40:01.849Z,16.50
2018-07-21T20:42:30.048Z,16.40
2018-07-21T20:44:58.331Z,16.50
2018-07-21T20:47:26.536Z,16.50
2018-07-21T20:49:55.046Z,16.50
2018-07-21T20:52:23.443Z,16.50
2018-07-21T20:54:51.633Z,16.50
2018-07-21T20:57:19.784Z,16.50
2018-07-21T20:59:48.022Z,16.40
2018-07-21T21:02:16.222Z,16.40
2018-07-21T21:04:44.443Z,16.30
2018-07-21T21:07:12.623Z,16.30
2018-07-21T21:09:40.802Z,16.30
2018-07-21T21:12:08.993Z,16.20
2018-07-21T21:14:37.164Z,16.20
2018-07-21T21:17:05.928Z,16.20
2018-07-21T21:19:34.137Z,16.20
2018-07-21T21:22:02.342Z,16.10
2018-07-21T21:24:30.553Z,16.10
2018-07-21T21:26:58.719Z,16.10
2018-07-21T21:29:26.896Z,16.00
2018-07-21T21:31:55.107Z,16.00
2018-07-21T21:34:24.059Z,15.90
2018-07-21T21:36:52.353Z,15.90
2018-07-21T21:39:21.175Z,15.80
2018-07-21T21:41:49.354Z,15.80
2018-07-21T21:44:17.518Z,15.80
2018-07-21T21:46:45.719Z,15.80
2018-07-21T21:49:13.947Z,15.80
2018-07-21T21:51:42.151Z,15.80
2018-07-21T21:54:10.328Z,15.70
2018-07-21T21:56:38.569Z,15.70
2018-07-21T21:59:06.747Z,15.70
2018-07-21T22:01:35.205Z,15.60
2018-07-21T22:04:03.426Z,15.70
2018-07-21T22:06:31.603Z,15.60
2018-07-21T22:09:00.219Z,15.60
2018-07-21T22:11:29.183Z,15.70
2018-07-21T22:13:57.401Z,15.70
2018-07-21T22:16:25.599Z,15.70
2018-07-21T22:18:53.840Z,15.60
2018-07-21T22:21:22.041Z,15.60
2018-07-21T22:23:50.259Z,15.60
2018-07-21T22:26:18.466Z,15.60
2018-07-21T22:28:46.693Z,15.60
2018-07-21T22:31:14.931Z,15.60
2018-07-21T22:33:44.763Z,15.60
2018-07-21T22:36:14.595Z,15.50
2018-07-21T22:38:42.853Z,15.50
2018-07-21T22:41:11.136Z,15.50
2018-07-21T22:43:39.356Z,15.50
2018-07-21T22:46:09.416Z,15.50
2018-07-21T22:48:37.649Z,15.50
2018-07-21T22:51:05.884Z,15.50
2018-07-21T22:53:34.091Z,15.50
2018-07-21T22:56:02.285Z,15.50
2018-07-21T22:58:30.492Z,15.50
2018-07-21T23:00:58.684Z,15.50
2018-07-21T23:03:27.111Z,15.40
2018-07-21T23:05:55.318Z,15.40
2018-07-21T23:08:23.508Z,15.40
2018-07-21T23:10:51.757Z,15.40
2018-07-21T23:13:19.960Z,15.40
2018-07-21T23:15:48.159Z,15.40
2018-07-21T23:18:16.364Z,15.40
2018-07-21T23:20:44.578Z,15.30
2018-07-21T23:23:13.106Z,15.30
2018-07-21T23:25:41.321Z,15.30
2018-07-21T23:28:09.541Z,15.30
2018-07-21T23:30:37.710Z,15.30
2018-07-21T23:33:05.937Z,15.30
2018-07-21T23:35:34.170Z,15.30
2018-07-21T23:38:02.399Z,15.30
2018-07-21T23:40:30.583Z,15.40
2018-07-21T23:42:59.299Z,15.40
2018-07-21T23:45:27.472Z,15.40
2018-07-21T23:47:55.667Z,15.40
2018-07-21T23:50:24.140Z,15.30
2018-07-21T23:52:52.823Z,15.30
2018-07-21T23:55:21.048Z,15.30
2018-07-21T23:57:49.286Z,15.30
